createdAt,value
2019-05-30T00:01:25.370Z,13.80
2019-05-30T00:03:54.367Z,13.80
2019-05-30T00:06:23.382Z,13.90
2019-05-30T00:08:52.347Z,13.80
2019-05-30T00:11:21.491Z,13.80
2019-05-30T00:13:50.519Z,13.70
2019-05-30T00:16:19.586Z,13.70
2019-05-30T00:18:48.658Z,13.70
2019-05-30T00:21:17.787Z,13.80
2019-05-30T00:23:46.839Z,13.80
2019-05-30T00:26:15.787Z,13.70
2019-05-30T00:28:44.751Z,13.70
2019-05-30T00:31:13.634Z,13.70
2019-05-30T00:33:42.625Z,13.70
2019-05-30T00:36:11.654Z,13.70
2019-05-30T00:38:40.659Z,13.60
2019-05-30T00:41:09.640Z,13.70
2019-05-30T00:43:38.663Z,13.70
2019-05-30T00:46:07.659Z,13.70
2019-05-30T00:48:36.623Z,13.70
2019-05-30T00:51:06.751Z,13.60
2019-05-30T00:53:36.160Z,13.60
2019-05-30T00:56:06.769Z,13.50
2019-05-30T00:58:35.887Z,13.50
2019-05-30T01:01:05.199Z,13.50
2019-05-30T01:03:34.388Z,13.50
2019-05-30T01:06:04.917Z,13.50
2019-05-30T01:08:34.311Z,13.50
2019-05-30T01:11:03.364Z,13.50
2019-05-30T01:13:32.416Z,13.50
2019-05-30T01:16:01.310Z,13.50
2019-05-30T01:18:30.431Z,13.40
2019-05-30T01:20:59.748Z,13.40
2019-05-30T01:23:28.796Z,13.40
2019-05-30T01:25:59.208Z,13.40
2019-05-30T01:28:29.045Z,13.40
2019-05-30T01:31:03.039Z,13.50
2019-05-30T01:33:29.036Z,13.50
2019-05-30T01:35:59.429Z,13.50
2019-05-30T01:38:28.796Z,13.50
2019-05-30T01:40:57.767Z,13.60
2019-05-30T01:43:26.857Z,13.70
2019-05-30T01:45:55.776Z,13.70
2019-05-30T01:48:24.824Z,13.60
2019-05-30T01:50:53.728Z,13.60
2019-05-30T01:53:22.782Z,13.60
2019-05-30T01:55:51.741Z,13.60
2019-05-30T01:58:21.049Z,13.60
2019-05-30T02:00:50.393Z,13.60
2019-05-30T02:03:19.658Z,13.60
2019-05-30T02:05:48.786Z,13.60
2019-05-30T02:08:17.849Z,13.60
2019-05-30T02:10:46.765Z,13.50
2019-05-30T02:13:15.685Z,13.50
2019-05-30T02:15:45.277Z,13.50
2019-05-30T02:18:14.310Z,13.50
2019-05-30T02:20:43.369Z,13.50
2019-05-30T02:23:13.536Z,13.50
2019-05-30T02:25:42.593Z,13.50
2019-05-30T02:28:11.626Z,13.50
2019-05-30T02:30:40.873Z,13.50
2019-05-30T02:33:12.495Z,13.50
2019-05-30T02:35:40.737Z,13.50
2019-05-30T02:38:11.787Z,13.50
2019-05-30T02:40:40.549Z,13.50
2019-05-30T02:43:10.447Z,13.50
2019-05-30T02:45:40.350Z,13.50
2019-05-30T02:48:09.859Z,13.50
2019-05-30T02:50:40.011Z,13.60
2019-05-30T02:53:10.924Z,13.60
2019-05-30T02:55:39.831Z,13.50
2019-05-30T02:58:10.565Z,13.60
2019-05-30T03:00:39.591Z,13.60
2019-05-30T03:03:11.521Z,13.50
2019-05-30T03:05:39.706Z,13.50
2019-05-30T03:08:11.164Z,13.40
2019-05-30T03:10:39.806Z,13.30
2019-05-30T03:13:10.601Z,13.30
2019-05-30T03:15:39.726Z,13.30
2019-05-30T03:18:10.382Z,13.30
2019-05-30T03:20:40.127Z,13.30
2019-05-30T03:23:10.458Z,13.30
2019-05-30T03:25:39.934Z,13.40
2019-05-30T03:28:11.179Z,13.30
2019-05-30T03:30:39.869Z,13.40
2019-05-30T03:33:24.695Z,13.40
2019-05-30T03:35:43.287Z,13.40
2019-05-30T03:38:13.505Z,13.40
2019-05-30T03:40:42.082Z,13.40
2019-05-30T03:43:11.740Z,13.50
2019-05-30T03:45:43.907Z,13.50
2019-05-30T03:48:16.351Z,13.50
2019-05-30T03:50:49.103Z,13.60
2019-05-30T03:53:18.658Z,13.60
2019-05-30T03:55:52.083Z,13.60
2019-05-30T03:58:29.930Z,13.70
2019-05-30T04:01:02.721Z,13.70
2019-05-30T04:03:41.804Z,13.70
2019-05-30T04:06:22.512Z,13.70
2019-05-30T04:08:55.424Z,13.70
2019-05-30T04:11:28.782Z,13.70
2019-05-30T04:14:00.764Z,13.70
2019-05-30T04:16:29.660Z,13.70
2019-05-30T04:18:58.815Z,13.70
2019-05-30T04:21:27.704Z,13.70
2019-05-30T04:23:56.700Z,13.70
2019-05-30T04:26:25.698Z,13.70
2019-05-30T04:28:54.837Z,13.70
2019-05-30T04:31:23.868Z,13.80
2019-05-30T04:33:53.110Z,13.80
2019-05-30T04:36:22.488Z,13.80
2019-05-30T04:38:51.826Z,13.90
2019-05-30T04:41:21.092Z,13.90
2019-05-30T04:43:50.223Z,13.90
2019-05-30T04:46:21.652Z,14.00
2019-05-30T04:48:50.204Z,14.00
2019-05-30T04:51:21.390Z,14.10
2019-05-30T04:53:49.760Z,14.10
2019-05-30T04:56:19.404Z,14.10
2019-05-30T04:58:49.474Z,14.20
2019-05-30T05:01:20.152Z,14.30
2019-05-30T05:03:49.701Z,14.30
2019-05-30T05:06:19.852Z,14.40
2019-05-30T05:08:49.147Z,14.30
2019-05-30T05:11:20.826Z,14.30
2019-05-30T05:13:48.898Z,14.40
2019-05-30T05:16:29.402Z,14.50
2019-05-30T05:18:48.482Z,14.50
2019-05-30T05:21:17.528Z,14.40
2019-05-30T05:23:46.416Z,14.40
2019-05-30T05:26:15.496Z,14.50
2019-05-30T05:28:44.449Z,14.60
2019-05-30T05:31:14.451Z,14.60
2019-05-30T05:33:55.750Z,14.70
2019-05-30T05:36:14.832Z,14.70
2019-05-30T05:38:43.799Z,14.80
2019-05-30T05:41:12.769Z,14.80
2019-05-30T05:43:41.762Z,14.90
2019-05-30T05:46:11.050Z,15.00
2019-05-30T05:48:40.186Z,15.10
2019-05-30T05:51:09.470Z,15.10
2019-05-30T05:53:38.429Z,15.10
2019-05-30T05:56:07.293Z,15.20
2019-05-30T05:58:36.182Z,15.20
2019-05-30T06:01:05.859Z,15.30
2019-05-30T06:03:34.798Z,15.30
2019-05-30T06:06:03.859Z,15.30
2019-05-30T06:08:32.812Z,15.30
2019-05-30T06:11:01.845Z,15.40
2019-05-30T06:13:31.091Z,15.50
2019-05-30T06:16:00.330Z,15.40
2019-05-30T06:18:29.202Z,15.50
2019-05-30T06:20:58.094Z,15.50
2019-05-30T06:23:27.792Z,15.50
2019-05-30T06:25:57.064Z,15.50
2019-05-30T06:28:26.365Z,15.50
2019-05-30T06:30:58.723Z,15.50
2019-05-30T06:33:27.123Z,15.50
2019-05-30T06:35:56.490Z,15.40
2019-05-30T06:38:25.455Z,15.30
2019-05-30T06:40:54.494Z,15.30
2019-05-30T06:43:24.347Z,15.20
2019-05-30T06:45:53.629Z,15.20
2019-05-30T06:48:22.720Z,15.30
2019-05-30T06:50:51.706Z,15.30
2019-05-30T06:53:21.087Z,15.20
2019-05-30T06:55:50.047Z,15.20
2019-05-30T06:58:18.980Z,15.20
2019-05-30T07:00:48.007Z,15.20
2019-05-30T07:03:17.041Z,15.40
2019-05-30T07:05:46.640Z,15.40
2019-05-30T07:08:16.091Z,15.50
2019-05-30T07:10:46.419Z,15.50
2019-05-30T07:13:17.232Z,15.60
2019-05-30T07:15:46.415Z,15.70
2019-05-30T07:18:15.788Z,15.70
2019-05-30T07:20:44.824Z,15.70
2019-05-30T07:23:13.840Z,15.90
2019-05-30T07:25:42.808Z,15.90
2019-05-30T07:28:11.860Z,15.90
2019-05-30T07:30:40.892Z,16.00
2019-05-30T07:33:09.929Z,16.00
2019-05-30T07:35:38.880Z,16.10
2019-05-30T07:38:07.916Z,16.10
2019-05-30T07:40:36.800Z,16.00
2019-05-30T07:43:05.812Z,16.20
2019-05-30T07:45:35.242Z,16.10
2019-05-30T07:48:04.563Z,16.20
2019-05-30T07:50:34.580Z,16.20
2019-05-30T07:53:03.808Z,16.20
2019-05-30T07:55:33.157Z,16.20
2019-05-30T07:58:02.576Z,16.20
2019-05-30T08:00:31.612Z,16.30
2019-05-30T08:03:00.677Z,16.30
2019-05-30T08:05:30.637Z,16.40
2019-05-30T08:08:00.146Z,16.40
2019-05-30T08:10:29.931Z,16.50
2019-05-30T08:12:58.970Z,16.50
2019-05-30T08:15:29.282Z,16.60
2019-05-30T08:17:58.554Z,16.50
2019-05-30T08:20:27.878Z,16.60
2019-05-30T08:22:56.846Z,16.60
2019-05-30T08:25:26.177Z,16.70
2019-05-30T08:27:55.302Z,16.70
2019-05-30T08:30:24.442Z,16.50
2019-05-30T08:32:53.458Z,16.50
2019-05-30T08:35:36.154Z,16.50
2019-05-30T08:37:53.566Z,16.40
2019-05-30T08:40:22.930Z,16.30
2019-05-30T08:42:51.913Z,16.30
2019-05-30T08:45:21.963Z,16.30
2019-05-30T08:47:51.319Z,16.20
2019-05-30T08:50:20.379Z,16.20
2019-05-30T08:52:49.804Z,16.30
2019-05-30T08:55:18.979Z,16.50
2019-05-30T08:57:48.232Z,16.40
2019-05-30T09:00:17.828Z,16.40
2019-05-30T09:02:46.977Z,16.40
2019-05-30T09:05:16.216Z,16.60
2019-05-30T09:07:46.351Z,16.40
2019-05-30T09:10:15.467Z,16.40
2019-05-30T09:12:48.799Z,16.30
2019-05-30T09:15:21.066Z,16.30
2019-05-30T09:17:48.599Z,16.20
2019-05-30T09:20:19.515Z,16.40
2019-05-30T09:22:48.571Z,16.30
2019-05-30T09:25:18.388Z,16.20
2019-05-30T09:27:48.386Z,16.30
2019-05-30T09:30:20.503Z,16.30
2019-05-30T09:32:49.828Z,16.20
2019-05-30T09:35:19.564Z,16.10
2019-05-30T09:37:49.483Z,16.10
2019-05-30T09:40:19.187Z,15.90
2019-05-30T09:42:48.650Z,15.90
2019-05-30T09:45:19.218Z,16.10
2019-05-30T09:47:49.267Z,16.20
2019-05-30T09:50:19.447Z,16.10
2019-05-30T09:52:49.394Z,16.10
2019-05-30T09:55:20.963Z,16.20
2019-05-30T09:57:50.038Z,16.20
2019-05-30T10:00:19.788Z,16.10
2019-05-30T10:02:50.334Z,16.10
2019-05-30T10:05:24.470Z,16.20
2019-05-30T10:07:52.999Z,16.20
2019-05-30T10:10:23.069Z,16.30
2019-05-30T10:12:52.689Z,16.40
2019-05-30T10:15:22.236Z,16.50
2019-05-30T10:17:53.827Z,16.60
2019-05-30T10:20:22.382Z,16.40
2019-05-30T10:22:52.410Z,16.40
2019-05-30T10:25:22.582Z,16.50
2019-05-30T10:27:53.092Z,16.60
2019-05-30T10:30:22.959Z,16.50
2019-05-30T10:32:52.109Z,16.60
2019-05-30T10:35:21.220Z,16.50
2019-05-30T10:37:50.929Z,16.50
2019-05-30T10:40:20.283Z,16.60
2019-05-30T10:42:51.088Z,16.70
2019-05-30T10:45:20.442Z,16.70
2019-05-30T10:47:49.509Z,16.70
2019-05-30T10:50:19.070Z,16.80
2019-05-30T10:52:49.299Z,16.90
2019-05-30T10:55:19.422Z,16.80
2019-05-30T10:57:49.904Z,16.80
2019-05-30T11:00:19.546Z,16.90
2019-05-30T11:02:49.448Z,16.90
2019-05-30T11:05:19.651Z,16.80
2019-05-30T11:08:04.901Z,16.80
2019-05-30T11:10:39.946Z,16.90
2019-05-30T11:13:11.285Z,16.90
2019-05-30T11:15:40.491Z,16.80
2019-05-30T11:18:09.682Z,17.00
2019-05-30T11:20:38.716Z,17.00
2019-05-30T11:23:07.959Z,17.10
2019-05-30T11:25:37.002Z,16.90
2019-05-30T11:28:06.571Z,17.00
2019-05-30T11:30:38.991Z,17.00
2019-05-30T11:33:08.181Z,17.00
2019-05-30T11:35:37.166Z,17.00
2019-05-30T11:38:06.260Z,17.10
2019-05-30T11:40:35.300Z,17.10
2019-05-30T11:43:04.802Z,17.10
2019-05-30T11:45:33.963Z,17.20
2019-05-30T11:48:02.943Z,17.40
2019-05-30T11:50:33.452Z,17.30
2019-05-30T11:53:02.427Z,17.30
2019-05-30T11:55:32.069Z,17.30
2019-05-30T11:58:01.093Z,17.40
2019-05-30T12:00:31.347Z,17.40
2019-05-30T12:03:00.812Z,17.50
2019-05-30T12:05:34.568Z,17.40
2019-05-30T12:08:01.317Z,17.40
2019-05-30T12:10:30.728Z,17.50
2019-05-30T12:13:01.503Z,17.50
2019-05-30T12:15:35.507Z,17.50
2019-05-30T12:18:04.681Z,17.60
2019-05-30T12:20:33.657Z,17.60
2019-05-30T12:23:02.700Z,17.70
2019-05-30T12:25:31.817Z,17.60
2019-05-30T12:28:00.821Z,17.70
2019-05-30T12:30:29.996Z,17.80
2019-05-30T12:33:00.357Z,17.80
2019-05-30T12:35:29.564Z,18.00
2019-05-30T12:38:02.559Z,17.90
2019-05-30T12:40:29.293Z,17.90
2019-05-30T12:42:59.911Z,18.10
2019-05-30T12:45:29.064Z,18.20
2019-05-30T12:47:59.167Z,18.20
2019-05-30T12:50:28.377Z,18.20
2019-05-30T12:52:57.652Z,18.20
2019-05-30T12:55:26.642Z,18.40
2019-05-30T12:57:56.504Z,18.20
2019-05-30T13:00:27.448Z,18.20
2019-05-30T13:02:56.760Z,18.10
2019-05-30T13:05:25.969Z,18.20
2019-05-30T13:08:12.023Z,18.20
2019-05-30T13:10:25.983Z,18.20
2019-05-30T13:12:55.576Z,18.30
2019-05-30T13:15:24.865Z,18.40
2019-05-30T13:17:55.616Z,18.40
2019-05-30T13:20:25.085Z,18.30
2019-05-30T13:22:54.625Z,18.40
2019-05-30T13:25:23.866Z,18.40
2019-05-30T13:27:52.828Z,18.50
2019-05-30T13:30:22.126Z,18.50
2019-05-30T13:32:51.117Z,18.60
2019-05-30T13:35:20.157Z,18.70
2019-05-30T13:37:49.617Z,18.90
2019-05-30T13:40:25.059Z,19.00
2019-05-30T13:42:49.654Z,19.20
2019-05-30T13:45:18.885Z,19.10
2019-05-30T13:47:48.233Z,19.30
2019-05-30T13:50:17.278Z,19.30
2019-05-30T13:52:46.249Z,19.30
2019-05-30T13:55:15.266Z,19.10
2019-05-30T13:57:44.330Z,19.20
2019-05-30T14:00:14.082Z,19.00
2019-05-30T14:02:43.047Z,18.70
2019-05-30T14:05:12.426Z,18.60
2019-05-30T14:07:41.490Z,18.90
2019-05-30T14:10:11.114Z,19.10
2019-05-30T14:12:40.075Z,19.40
2019-05-30T14:15:13.528Z,19.70
2019-05-30T14:17:40.658Z,19.70
2019-05-30T14:20:11.227Z,19.70
2019-05-30T14:22:40.426Z,19.50
2019-05-30T14:25:09.997Z,19.20
2019-05-30T14:27:39.088Z,19.20
2019-05-30T14:30:10.838Z,19.20
2019-05-30T14:32:40.158Z,19.10
2019-05-30T14:35:11.720Z,19.00
2019-05-30T14:37:41.054Z,19.00
2019-05-30T14:40:11.309Z,19.00
2019-05-30T14:42:40.388Z,19.10
2019-05-30T14:45:10.704Z,19.20
2019-05-30T14:47:39.835Z,19.10
2019-05-30T14:50:10.926Z,19.00
2019-05-30T14:52:40.307Z,18.90
2019-05-30T14:55:10.957Z,18.70
2019-05-30T14:57:40.383Z,18.80
2019-05-30T15:00:13.431Z,18.80
2019-05-30T15:02:42.979Z,18.90
2019-05-30T15:05:13.780Z,19.00
2019-05-30T15:07:42.872Z,19.20
2019-05-30T15:10:13.631Z,19.30
2019-05-30T15:12:42.676Z,19.30
2019-05-30T15:15:15.130Z,19.20
2019-05-30T15:17:43.316Z,19.20
2019-05-30T15:20:13.917Z,19.20
2019-05-30T15:22:43.072Z,19.30
2019-05-30T15:25:15.929Z,19.40
2019-05-30T15:27:43.435Z,19.70
2019-05-30T15:30:13.103Z,19.90
2019-05-30T15:32:42.496Z,20.00
2019-05-30T15:35:12.831Z,20.00
2019-05-30T15:37:42.181Z,20.10
2019-05-30T15:40:12.933Z,20.00
2019-05-30T15:42:42.067Z,20.10
2019-05-30T15:45:11.919Z,20.10
2019-05-30T15:47:41.158Z,20.00
2019-05-30T15:50:11.785Z,19.90
2019-05-30T15:52:41.317Z,19.90
2019-05-30T15:55:11.403Z,20.00
2019-05-30T15:57:40.596Z,20.20
2019-05-30T16:00:11.891Z,20.00
2019-05-30T16:02:41.503Z,20.10
2019-05-30T16:05:12.335Z,20.00
2019-05-30T16:07:41.701Z,20.10
2019-05-30T16:10:11.353Z,20.10
2019-05-30T16:12:40.881Z,20.10
2019-05-30T16:15:11.682Z,20.20
2019-05-30T16:17:40.903Z,20.20
2019-05-30T16:20:11.764Z,20.20
2019-05-30T16:22:40.920Z,20.20
2019-05-30T16:25:10.437Z,20.30
2019-05-30T16:27:39.537Z,20.20
2019-05-30T16:30:10.894Z,20.20
2019-05-30T16:32:40.020Z,20.30
2019-05-30T16:35:09.779Z,20.20
2019-05-30T16:37:38.802Z,20.10
2019-05-30T16:40:08.982Z,20.20
2019-05-30T16:42:37.951Z,20.30
2019-05-30T16:45:07.384Z,20.30
2019-05-30T16:47:37.077Z,20.40
2019-05-30T16:50:07.962Z,20.40
2019-05-30T16:52:37.023Z,20.20
2019-05-30T16:55:06.181Z,20.30
2019-05-30T16:57:35.217Z,20.30
2019-05-30T17:00:04.765Z,20.20
2019-05-30T17:02:33.655Z,20.30
2019-05-30T17:05:02.633Z,20.30
2019-05-30T17:07:31.522Z,20.30
2019-05-30T17:10:00.491Z,20.30
2019-05-30T17:12:29.997Z,20.30
2019-05-30T17:14:58.990Z,20.20
2019-05-30T17:17:27.962Z,20.20
2019-05-30T17:19:57.037Z,20.20
2019-05-30T17:22:30.198Z,20.30
2019-05-30T17:24:56.766Z,20.30
2019-05-30T17:27:25.726Z,20.30
2019-05-30T17:29:54.699Z,20.30
2019-05-30T17:32:23.933Z,20.30
2019-05-30T17:34:52.967Z,20.30
2019-05-30T17:37:22.279Z,20.30
2019-05-30T17:39:51.302Z,20.20
2019-05-30T17:42:20.853Z,20.10
2019-05-30T17:44:49.962Z,19.90
2019-05-30T17:47:19.272Z,19.90
2019-05-30T17:49:48.395Z,19.90
2019-05-30T17:52:17.360Z,20.00
2019-05-30T17:54:46.767Z,20.10
2019-05-30T17:57:15.679Z,20.00
2019-05-30T17:59:44.651Z,20.00
2019-05-30T18:02:13.671Z,20.00
2019-05-30T18:04:42.643Z,20.00
2019-05-30T18:07:11.687Z,20.00
2019-05-30T18:09:40.576Z,20.00
2019-05-30T18:12:09.611Z,20.00
2019-05-30T18:14:38.588Z,20.00
2019-05-30T18:17:09.467Z,20.00
2019-05-30T18:19:38.201Z,19.90
2019-05-30T18:22:07.267Z,19.80
2019-05-30T18:24:36.199Z,19.70
2019-05-30T18:27:05.246Z,19.70
2019-05-30T18:29:34.230Z,19.60
2019-05-30T18:32:03.386Z,19.60
2019-05-30T18:34:32.764Z,19.50
2019-05-30T18:37:01.952Z,19.50
2019-05-30T18:39:30.993Z,19.50
2019-05-30T18:42:00.419Z,19.40
2019-05-30T18:44:31.586Z,19.40
2019-05-30T18:47:00.149Z,19.40
2019-05-30T18:49:31.233Z,19.40
2019-05-30T18:52:00.419Z,19.40
2019-05-30T18:54:30.557Z,19.40
2019-05-30T18:56:59.576Z,19.40
2019-05-30T18:59:29.049Z,19.40
2019-05-30T19:01:58.270Z,19.40
2019-05-30T19:04:27.447Z,19.30
2019-05-30T19:06:56.592Z,19.30
2019-05-30T19:09:26.720Z,19.30
2019-05-30T19:11:55.925Z,19.30
2019-05-30T19:14:28.231Z,19.20
2019-05-30T19:16:55.563Z,19.20
2019-05-30T19:19:25.893Z,19.20
2019-05-30T19:21:54.933Z,19.20
2019-05-30T19:24:23.889Z,19.20
2019-05-30T19:26:52.913Z,19.20
2019-05-30T19:29:22.224Z,19.20
2019-05-30T19:31:51.091Z,19.20
2019-05-30T19:34:19.986Z,19.20
2019-05-30T19:36:49.182Z,19.20
2019-05-30T19:39:18.060Z,19.20
2019-05-30T19:41:56.820Z,19.20
2019-05-30T19:44:17.797Z,19.20
2019-05-30T19:46:47.157Z,19.20
2019-05-30T19:49:16.206Z,19.20
2019-05-30T19:51:45.710Z,19.20
2019-05-30T19:54:15.734Z,19.30
2019-05-30T19:56:45.470Z,19.20
2019-05-30T19:59:14.478Z,19.20
2019-05-30T20:01:43.554Z,19.20
2019-05-30T20:04:12.956Z,19.20
2019-05-30T20:06:44.919Z,19.20
2019-05-30T20:09:14.117Z,19.20
2019-05-30T20:11:43.069Z,19.20
2019-05-30T20:14:12.200Z,19.20
2019-05-30T20:16:42.011Z,19.20
2019-05-30T20:19:11.556Z,19.20
2019-05-30T20:21:40.607Z,19.20
2019-05-30T20:24:09.639Z,19.20
2019-05-30T20:26:38.662Z,19.30
2019-05-30T20:29:08.042Z,19.20
2019-05-30T20:31:37.334Z,19.20
2019-05-30T20:34:06.425Z,19.10
2019-05-30T20:36:36.419Z,19.10
2019-05-30T20:39:06.835Z,19.10
2019-05-30T20:41:36.870Z,19.10
2019-05-30T20:44:06.102Z,19.10
2019-05-30T20:46:35.511Z,19.00
2019-05-30T20:49:04.823Z,19.00
2019-05-30T20:51:35.556Z,19.00
2019-05-30T20:54:04.646Z,18.90
2019-05-30T20:56:33.702Z,18.90
2019-05-30T20:59:02.639Z,18.90
2019-05-30T21:01:31.610Z,18.80
2019-05-30T21:04:00.650Z,18.80
2019-05-30T21:06:30.098Z,18.80
2019-05-30T21:08:59.874Z,18.80
2019-05-30T21:11:30.370Z,18.80
2019-05-30T21:13:59.654Z,18.70
2019-05-30T21:16:29.709Z,18.70
2019-05-30T21:18:59.366Z,18.70
2019-05-30T21:21:28.518Z,18.70
2019-05-30T21:23:57.455Z,18.70
2019-05-30T21:26:26.436Z,18.70
2019-05-30T21:28:55.550Z,18.70
2019-05-30T21:31:24.551Z,18.70
2019-05-30T21:33:53.615Z,18.70
2019-05-30T21:36:26.461Z,18.70
2019-05-30T21:38:53.463Z,18.70
2019-05-30T21:41:22.436Z,18.70
2019-05-30T21:43:51.539Z,18.70
2019-05-30T21:46:20.512Z,18.70
2019-05-30T21:48:49.403Z,18.70
2019-05-30T21:51:18.431Z,18.70
2019-05-30T21:53:47.699Z,18.60
2019-05-30T21:56:16.853Z,18.60
2019-05-30T21:58:46.359Z,18.70
2019-05-30T22:01:37.558Z,18.60
2019-05-30T22:04:08.873Z,18.60
2019-05-30T22:06:38.076Z,18.60
2019-05-30T22:09:09.152Z,18.60
2019-05-30T22:11:38.184Z,18.60
2019-05-30T22:14:07.772Z,18.60
2019-05-30T22:16:36.864Z,18.50
2019-05-30T22:19:06.284Z,18.60
2019-05-30T22:21:35.472Z,18.60
2019-05-30T22:24:05.084Z,18.60
2019-05-30T22:26:34.061Z,18.60
2019-05-30T22:29:03.372Z,18.60
2019-05-30T22:31:32.660Z,18.50
2019-05-30T22:34:01.641Z,18.50
2019-05-30T22:36:30.685Z,18.50
2019-05-30T22:38:59.676Z,18.50
2019-05-30T22:41:29.170Z,18.50
2019-05-30T22:43:58.312Z,18.40
2019-05-30T22:46:27.277Z,18.40
2019-05-30T22:48:56.960Z,18.30
2019-05-30T22:51:27.621Z,18.30
2019-05-30T22:53:57.332Z,18.30
2019-05-30T22:56:26.364Z,18.30
2019-05-30T22:58:55.799Z,18.30
2019-05-30T23:01:24.957Z,18.30
2019-05-30T23:03:54.163Z,18.20
2019-05-30T23:06:23.518Z,18.20
2019-05-30T23:08:52.626Z,18.10
2019-05-30T23:11:21.801Z,18.10
2019-05-30T23:13:51.865Z,18.10
2019-05-30T23:16:21.325Z,18.10
2019-05-30T23:18:50.617Z,18.10
2019-05-30T23:21:19.587Z,18.10
2019-05-30T23:23:48.891Z,18.10
2019-05-30T23:26:17.981Z,18.10
2019-05-30T23:28:47.501Z,18.10
2019-05-30T23:31:16.742Z,18.10
2019-05-30T23:33:45.706Z,18.00
2019-05-30T23:36:14.658Z,18.10
2019-05-30T23:38:43.621Z,18.00
2019-05-30T23:41:12.666Z,18.00
2019-05-30T23:43:55.149Z,18.10
2019-05-30T23:46:12.266Z,18.00
2019-05-30T23:48:41.248Z,18.00
2019-05-30T23:51:10.279Z,17.90
2019-05-30T23:53:39.610Z,17.90
2019-05-30T23:56:08.466Z,17.90
2019-05-30T23:58:37.407Z,17.90
